Granex 2 — YP3264 — position and weather

sailwx.info

Track history (hours):
 
Tides and Currents Weather Stations Pressure Air Temp Water Temp Dewpoint Dewpoint Depression Visibility Wind Speed Wind Dir Waves Ship Positions

Granex 2

Last reported at 2018-Mar-17 08:20 UTC. Time now 2018-Apr-24 12:49 UTC.
Position N 48°21' E 016°17'.
Warning: this ship's position is 38 days out of date.

Length 85 m; draft 2.2 m.

Type: Ship. MMSI: 264163264.

Date/timePositionNaut miles runAvg speedWind from/ knotsBaromVisibWave heightAir tempDewpointWater temp
2018-Mar-17 08:20N 48°21' E 016°17'1 4.2
2018-Mar-17 08:00N 48°20' E 016°19'2 3.1
2018-Mar-17 07:29N 48°19' E 016°20'2 3.5
2018-Mar-17 07:00N 48°17' E 016°21'2 4.6
2018-Mar-17 06:30N 48°15' E 016°23'3 5.3
2018-Mar-17 06:00N 48°13' E 016°25'1 0.9
2018-Mar-17 05:26N 48°13' E 016°25'0 0.0
2018-Mar-17 04:59N 48°13' E 016°25'0 0.0
2018-Mar-17 04:30N 48°13' E 016°25'0 0.0
2018-Mar-17 03:55N 48°13' E 016°25'0 0.0
2018-Mar-17 03:29N 48°13' E 016°25'0 0.0
2018-Mar-17 03:00N 48°13' E 016°25'0 0.0
2018-Mar-17 02:28N 48°13' E 016°25'0 0.0
2018-Mar-17 01:54N 48°13' E 016°25'0 0.0
2018-Mar-17 01:24N 48°13' E 016°25'0 0.0
2018-Mar-17 00:57N 48°13' E 016°25'0 0.0
2018-Mar-17 00:28N 48°13' E 016°25'0 0.0
2018-Mar-17 00:00N 48°13' E 016°25'0 0.0
2018-Mar-16 23:30N 48°13' E 016°25'0 0.0
2018-Mar-16 23:00N 48°13' E 016°25'0 0.0
2018-Mar-16 22:29N 48°13' E 016°25'0 0.0
2018-Mar-16 21:55N 48°13' E 016°25'0 0.0
2018-Mar-16 21:29N 48°13' E 016°25'0 0.0
2018-Mar-16 20:54N 48°13' E 016°25'0 0.0
2018-Mar-16 20:28N 48°13' E 016°25'0 0.0
2018-Mar-16 20:00N 48°13' E 016°25'0 0.0
2018-Mar-16 19:27N 48°13' E 016°25'0 0.0
2018-Mar-16 19:00N 48°13' E 016°25'0 0.4
2018-Mar-16 18:29N 48°13' E 016°26'1 1.3
2018-Mar-16 18:00N 48°13' E 016°25'0 0.2
2018-Mar-16 17:28N 48°13' E 016°25'3 6.4
2018-Mar-16 17:00N 48°11' E 016°28'0 1.0
2018-Mar-16 16:31N 48°11' E 016°29'2 3.6
2018-Mar-16 16:00N 48°09' E 016°31'2 3.4
2018-Mar-16 15:30N 48°08' E 016°33'4 3.5
2018-Mar-16 14:27N 48°08' E 016°38'6 2.9
2018-Mar-16 12:27N 48°07' E 016°47'2 3.1
2018-Mar-16 11:53N 48°07' E 016°50'1 3.0
2018-Mar-16 11:30N 48°08' E 016°51'2 3.1
2018-Mar-16 11:00N 48°08' E 016°53'2 3.0
2018-Mar-16 10:30N 48°09' E 016°56'2 3.1
2018-Mar-16 10:00N 48°10' E 016°57'1 2.5
2018-Mar-16 09:29N 48°10' E 016°59'2 3.4
2018-Mar-16 09:00N 48°09' E 017°01'2 3.0
2018-Mar-16 08:30N 48°09' E 017°03'1 2.9
2018-Mar-16 08:01N 48°08' E 017°05'2 4.2
2018-Mar-16 07:30N 48°08' E 017°08'2 4.6
2018-Mar-16 07:00N 48°06' E 017°09'0 0.8
2018-Mar-16 06:31N 48°05' E 017°09'0 0.0
2018-Mar-16 06:00N 48°05' E 017°09'0 0.0
2018-Mar-16 05:30N 48°05' E 017°09'1 2.6
2018-Mar-16 05:00N 48°07' E 017°08'1 2.6
2018-Mar-16 04:30N 48°08' E 017°09'0 0.0
2018-Mar-16 04:00N 48°08' E 017°09'0 0.0
2018-Mar-16 03:30N 48°08' E 017°09'0 0.0
2018-Mar-16 03:00N 48°08' E 017°09'0 0.0
2018-Mar-16 02:30N 48°08' E 017°09'0 0.0
2018-Mar-16 02:00N 48°08' E 017°09'0 0.0
2018-Mar-16 01:30N 48°08' E 017°09'0 0.0
2018-Mar-16 01:00N 48°08' E 017°09'0 0.0
2018-Mar-16 00:30N 48°08' E 017°09'0 0.0
2018-Mar-16 00:00N 48°08' E 017°09'0 0.0
2018-Mar-15 23:30N 48°08' E 017°09'0 0.0
2018-Mar-15 23:00N 48°08' E 017°09'0 0.0
2018-Mar-15 22:30N 48°08' E 017°09'0 0.0
2018-Mar-15 22:00N 48°08' E 017°09'0 0.0
2018-Mar-15 21:30N 48°08' E 017°09'0 0.0
2018-Mar-15 21:00N 48°08' E 017°09'0 0.0
2018-Mar-15 20:30N 48°08' E 017°09'0 0.0
2018-Mar-15 20:00N 48°08' E 017°09'0 0.0
2018-Mar-15 19:30N 48°08' E 017°09'0 0.0
2018-Mar-15 19:00N 48°08' E 017°09'0 0.0
2018-Mar-15 18:30N 48°08' E 017°09'0 0.0
2018-Mar-15 18:00N 48°08' E 017°09'0 0.0
2018-Mar-15 17:30N 48°08' E 017°09'0 0.4
2018-Mar-15 17:00N 48°08' E 017°09'1 1.8
2018-Mar-15 16:30N 48°07' E 017°08'2 3.1
2018-Mar-15 16:00N 48°08' E 017°08'0 0.0
2018-Mar-15 15:30N 48°08' E 017°08'0 0.0
2018-Mar-15 15:00N 48°08' E 017°08'0 0.0
2018-Mar-15 14:30N 48°08' E 017°08'0 0.0
2018-Mar-15 14:00N 48°08' E 017°08'0 0.0
2018-Mar-15 13:30N 48°08' E 017°08'0 0.0
2018-Mar-15 13:00N 48°08' E 017°08'0 0.0
2018-Mar-15 12:30N 48°08' E 017°08'0 0.0
2018-Mar-15 12:00N 48°08' E 017°08'0 0.0
2018-Mar-15 11:30N 48°08' E 017°08'0 0.0
2018-Mar-15 11:00N 48°08' E 017°08'0 0.0
2018-Mar-15 10:30N 48°08' E 017°08'0 0.0
2018-Mar-15 10:00N 48°08' E 017°08'0 0.0
2018-Mar-15 09:30N 48°08' E 017°08'0 0.0
2018-Mar-15 09:00N 48°08' E 017°08'0 0.0
2018-Mar-15 08:30N 48°08' E 017°08'0 0.0
2018-Mar-15 08:00N 48°08' E 017°08'0 0.0
2018-Mar-15 07:30N 48°08' E 017°08'0 0.0
2018-Mar-15 07:00N 48°08' E 017°08'0 0.0
2018-Mar-15 06:30N 48°08' E 017°08'0 0.0
2018-Mar-15 06:00N 48°08' E 017°08'0 0.0
2018-Mar-15 05:30N 48°08' E 017°08'0 0.0
2018-Mar-15 05:00N 48°08' E 017°08'0 0.0
2018-Mar-15 04:30N 48°08' E 017°08'0 0.0
2018-Mar-15 04:00N 48°08' E 017°08'0 0.0
2018-Mar-15 03:30N 48°08' E 017°08'0 0.0
2018-Mar-15 03:00N 48°08' E 017°08'0 0.0
2018-Mar-15 02:30N 48°08' E 017°08'0 0.0
2018-Mar-15 02:00N 48°08' E 017°08'0 0.0
2018-Mar-15 01:30N 48°08' E 017°08'0 0.0
2018-Mar-15 01:00N 48°08' E 017°08'0 0.0
2018-Mar-15 00:30N 48°08' E 017°08'0 0.0
2018-Mar-15 00:00N 48°08' E 017°08'0 0.0
2018-Mar-14 23:30N 48°08' E 017°08'0 0.0
2018-Mar-14 23:00N 48°08' E 017°08'0 0.0
2018-Mar-14 22:30N 48°08' E 017°08'0 0.0
2018-Mar-14 22:00N 48°08' E 017°08'0 0.0
2018-Mar-14 21:30N 48°08' E 017°08'0 0.0
2018-Mar-14 21:00N 48°08' E 017°08'0 0.0
2018-Mar-14 20:30N 48°08' E 017°08'0 0.0
2018-Mar-14 20:00N 48°08' E 017°08'0 0.0
2018-Mar-14 19:30N 48°08' E 017°08'0 0.0
2018-Mar-14 19:00N 48°08' E 017°08'0 0.0
2018-Mar-14 18:30N 48°08' E 017°08'0 0.0
2018-Mar-14 18:00N 48°08' E 017°08'0 0.0
2018-Mar-14 17:30N 48°08' E 017°08'0 0.0
2018-Mar-14 17:00N 48°08' E 017°08'0 0.0
2018-Mar-14 16:30N 48°08' E 017°08'0 0.0
2018-Mar-14 16:00N 48°08' E 017°08'0 0.3
2018-Mar-14 15:30N 48°08' E 017°08'0 0.0
2018-Mar-14 15:00N 48°08' E 017°08'0 0.0
2018-Mar-14 14:30N 48°08' E 017°08'0 0.0
2018-Mar-14 14:00N 48°08' E 017°08'0 0.0
2018-Mar-14 13:30N 48°08' E 017°08'0 0.0
2018-Mar-14 13:00N 48°08' E 017°08'0 0.0
2018-Mar-14 12:30N 48°08' E 017°08'0 0.0
2018-Mar-14 12:00N 48°08' E 017°08'0 0.0
2018-Mar-14 11:30N 48°08' E 017°08'0 0.0
2018-Mar-14 11:00N 48°08' E 017°08'0 0.0
2018-Mar-14 10:30N 48°08' E 017°08'0 0.0
2018-Mar-14 10:00N 48°08' E 017°08'0 0.0
2018-Mar-14 09:30N 48°08' E 017°08'0 0.0
2018-Mar-14 09:00N 48°08' E 017°08'0 0.0
2018-Mar-14 08:30N 48°08' E 017°08'0 0.0
2018-Mar-14 08:00N 48°08' E 017°08'0 0.0
2018-Mar-14 07:30N 48°08' E 017°08'0 0.2
2018-Mar-14 07:00N 48°08' E 017°08'0 0.1
2018-Mar-14 06:30N 48°08' E 017°08'0 0.0
2018-Mar-14 06:00N 48°08' E 017°08'0 0.0
2018-Mar-14 05:30N 48°08' E 017°08'0 0.0
2018-Mar-14 05:00N 48°08' E 017°08'0 0.0
2018-Mar-14 04:30N 48°08' E 017°08'0 0.0
2018-Mar-14 04:00N 48°08' E 017°08'0 0.0
2018-Mar-14 03:30N 48°08' E 017°08'0 0.0
2018-Mar-14 03:00N 48°08' E 017°08'0 0.0
2018-Mar-14 02:30N 48°08' E 017°08'0 0.0
2018-Mar-14 02:00N 48°08' E 017°08'0 0.0
2018-Mar-14 01:30N 48°08' E 017°08'0 0.0
2018-Mar-14 01:00N 48°08' E 017°08'0 0.0
2018-Mar-14 00:30N 48°08' E 017°08'0 0.0
2018-Mar-14 00:00N 48°08' E 017°08'0 0.0
2018-Mar-13 23:30N 48°08' E 017°08'0 0.0
2018-Mar-13 23:00N 48°08' E 017°08'0 0.0
2018-Mar-13 22:30N 48°08' E 017°08'0 0.0
2018-Mar-13 22:00N 48°08' E 017°08'0 0.0
2018-Mar-13 21:30N 48°08' E 017°08'0 0.0
2018-Mar-13 21:00N 48°08' E 017°08'0 0.0
2018-Mar-13 20:30N 48°08' E 017°08'0 0.0
2018-Mar-13 20:00N 48°08' E 017°08'0 0.0
2018-Mar-13 19:30N 48°08' E 017°08'0 0.0
2018-Mar-13 19:00N 48°08' E 017°08'0 0.0
2018-Mar-13 18:30N 48°08' E 017°08'0 0.0
2018-Mar-13 18:00N 48°08' E 017°08'0 0.0
2018-Mar-13 17:30N 48°08' E 017°08'0 0.0
2018-Mar-13 17:00N 48°08' E 017°08'0 0.0
2018-Mar-13 16:30N 48°08' E 017°08'0 0.0
2018-Mar-13 16:00N 48°08' E 017°08'0 0.0
2018-Mar-13 15:30N 48°08' E 017°08'0 0.9
2018-Mar-13 15:00N 48°08' E 017°09'1 1.5
2018-Mar-13 14:30N 48°07' E 017°09'0 0.3
2018-Mar-13 14:00N 48°08' E 017°09'0 0.0
2018-Mar-13 13:30N 48°08' E 017°09'0 0.0
2018-Mar-13 13:00N 48°08' E 017°09'0 0.0
2018-Mar-13 12:31N 48°08' E 017°09'0 0.0
2018-Mar-13 12:00N 48°08' E 017°09'0 0.0
2018-Mar-13 11:30N 48°08' E 017°09'0 0.0
2018-Mar-13 11:00N 48°08' E 017°09'0 0.0
2018-Mar-13 10:30N 48°08' E 017°09'0 0.0
2018-Mar-13 10:00N 48°08' E 017°09'0 0.0
2018-Mar-13 09:30N 48°08' E 017°09'0 0.0
2018-Mar-13 09:00N 48°08' E 017°09'0 0.0
2018-Mar-13 08:30N 48°08' E 017°09'0 0.0
2018-Mar-13 08:00N 48°08' E 017°09'0 0.0
2018-Mar-13 07:30N 48°08' E 017°09'0 0.0
2018-Mar-13 07:00N 48°08' E 017°09'0 0.0
2018-Mar-13 06:30N 48°08' E 017°09'0 0.0
2018-Mar-13 06:00N 48°08' E 017°09'0 0.0
2018-Mar-13 05:30N 48°08' E 017°09'0 0.0
2018-Mar-13 05:00N 48°08' E 017°09'0 0.0
2018-Mar-13 04:30N 48°08' E 017°09'0 0.0
2018-Mar-13 04:00N 48°08' E 017°09'0 0.0
2018-Mar-13 03:30N 48°08' E 017°09'0 0.0
2018-Mar-13 03:00N 48°08' E 017°09'0 0.0
2018-Mar-13 02:30N 48°08' E 017°09'0 0.0
2018-Mar-13 02:00N 48°08' E 017°09'0 0.0
2018-Mar-13 01:30N 48°08' E 017°09'0 0.0
2018-Mar-13 01:00N 48°08' E 017°09'0 0.0
2018-Mar-13 00:30N 48°08' E 017°09'0 0.0
2018-Mar-13 00:00N 48°08' E 017°09'0 0.0
2018-Mar-12 23:30N 48°08' E 017°09'0 0.0
2018-Mar-12 23:00N 48°08' E 017°09'0 0.0
2018-Mar-12 22:30N 48°08' E 017°09'0 0.0
2018-Mar-12 22:00N 48°08' E 017°09'0 0.0
2018-Mar-12 21:30N 48°08' E 017°09'0 0.0
2018-Mar-12 21:00N 48°08' E 017°09'0 0.0
2018-Mar-12 20:30N 48°08' E 017°09'0 0.0
2018-Mar-12 19:59N 48°08' E 017°09'0 0.0
2018-Mar-12 19:30N 48°08' E 017°09'0 0.0
2018-Mar-12 19:00N 48°08' E 017°09'0 0.0
2018-Mar-12 18:30N 48°08' E 017°09'0 0.0
2018-Mar-12 18:00N 48°08' E 017°09'0 0.0
2018-Mar-12 17:30N 48°08' E 017°09'0 0.0
2018-Mar-12 17:00N 48°08' E 017°09'0 0.0
2018-Mar-12 16:30N 48°08' E 017°09'0 0.0
2018-Mar-12 16:00N 48°08' E 017°09'0 0.0
2018-Mar-12 15:30N 48°08' E 017°09'0 0.0
2018-Mar-12 15:00N 48°08' E 017°09'0 0.0
2018-Mar-12 14:30N 48°08' E 017°09'0 0.0
2018-Mar-12 14:00N 48°08' E 017°09'0 0.0
2018-Mar-12 13:30N 48°08' E 017°09'0 0.0
2018-Mar-12 13:00N 48°08' E 017°09'0 0.2
2018-Mar-12 12:30N 48°07' E 017°09'0 0.0
2018-Mar-12 12:00N 48°07' E 017°09'0 0.0
2018-Mar-12 11:30N 48°07' E 017°09'0 0.0
2018-Mar-12 11:00N 48°07' E 017°09'0 0.0
2018-Mar-12 10:30N 48°07' E 017°09'0 0.0
2018-Mar-12 10:00N 48°07' E 017°09'0 0.0
2018-Mar-12 09:30N 48°07' E 017°09'0 0.0
2018-Mar-12 09:00N 48°07' E 017°09'0 0.0
2018-Mar-12 08:30N 48°07' E 017°09'0 0.0
2018-Mar-12 08:00N 48°07' E 017°09'0 0.0
2018-Mar-12 07:30N 48°07' E 017°09'0 0.0
2018-Mar-12 07:00N 48°07' E 017°09'0 0.0
2018-Mar-12 06:31N 48°07' E 017°09'0 0.0
2018-Mar-12 06:00N 48°07' E 017°09'0 0.0
2018-Mar-12 05:30N 48°07' E 017°09'0 0.0
2018-Mar-12 05:00N 48°07' E 017°09'0 0.0
2018-Mar-12 04:30N 48°07' E 017°09'0 0.0
2018-Mar-12 04:00N 48°07' E 017°09'0 0.0
2018-Mar-12 03:30N 48°07' E 017°09'0 0.0
2018-Mar-12 03:00N 48°07' E 017°09'0 0.0
2018-Mar-12 02:30N 48°07' E 017°09'0 0.0
2018-Mar-12 02:00N 48°07' E 017°09'0 0.0
2018-Mar-12 01:30N 48°07' E 017°09'0 0.0
2018-Mar-12 01:00N 48°07' E 017°09'0 0.0
2018-Mar-12 00:29N 48°07' E 017°09'0 0.0
2018-Mar-12 00:00N 48°07' E 017°09'0 0.0
2018-Mar-11 23:30N 48°07' E 017°09'0 0.0
2018-Mar-11 23:00N 48°07' E 017°09'0 0.0
2018-Mar-11 22:30N 48°07' E 017°09'0 0.0
2018-Mar-11 22:00N 48°07' E 017°09'0 0.0
2018-Mar-11 21:30N 48°07' E 017°09'0 0.0
2018-Mar-11 21:00N 48°07' E 017°09'0 0.0
2018-Mar-11 20:30N 48°07' E 017°09'0 0.0
2018-Mar-11 20:00N 48°07' E 017°09'0 0.0
2018-Mar-11 19:30N 48°07' E 017°09'0 0.0
2018-Mar-11 19:00N 48°07' E 017°09'0 0.0
2018-Mar-11 18:31N 48°07' E 017°09'0 0.0
2018-Mar-11 18:00N 48°07' E 017°09'0 0.0
2018-Mar-11 17:30N 48°07' E 017°09'0 0.0
2018-Mar-11 17:00N 48°07' E 017°09'0 0.0
2018-Mar-11 16:30N 48°07' E 017°09'0 0.0
2018-Mar-11 16:00N 48°07' E 017°09'0 0.0
2018-Mar-11 15:30N 48°07' E 017°09'0 0.0
2018-Mar-11 15:00N 48°07' E 017°09'0 0.0
2018-Mar-11 14:30N 48°07' E 017°09'0 0.0
2018-Mar-11 14:00N 48°07' E 017°09'0 0.0
2018-Mar-11 13:30N 48°07' E 017°09'0 0.0
2018-Mar-11 13:00N 48°07' E 017°09'0 0.0
2018-Mar-11 12:31N 48°07' E 017°09'0 0.1
2018-Mar-11 12:00N 48°08' E 017°09'0 0.0
2018-Mar-11 11:30N 48°08' E 017°09'0 0.0
2018-Mar-11 11:00N 48°08' E 017°09'0 0.0
2018-Mar-11 10:30N 48°08' E 017°09'0 0.4
2018-Mar-11 10:00N 48°07' E 017°09'4 8.1
2018-Mar-11 09:30N 48°09' E 017°03'4 8.2
2018-Mar-11 09:00N 48°10' E 016°57'19 7.7
2018-Mar-11 06:30N 48°11' E 016°29'  
Track history (hours):
 
Tides and Currents Weather Stations Pressure Air Temp Water Temp Dewpoint Dewpoint Depression Visibility Wind Speed Wind Dir Waves Ship Positions

Granex 2

Last reported at 2018-Mar-17 08:20 UTC. Time now 2018-Apr-24 12:49 UTC.
Position N 48°21' E 016°17'.
Warning: this ship's position is 38 days out of date.

Length 85 m; draft 2.2 m.

Type: Ship. MMSI: 264163264.

Date/timePositionNaut miles runAvg speedWind from/ knotsBaromVisibWave heightAir tempDewpointWater temp
2018-Mar-17 08:20N 48°21' E 016°17'1 4.2
2018-Mar-17 08:00N 48°20' E 016°19'2 3.1
2018-Mar-17 07:29N 48°19' E 016°20'2 3.5
2018-Mar-17 07:00N 48°17' E 016°21'2 4.6
2018-Mar-17 06:30N 48°15' E 016°23'3 5.3
2018-Mar-17 06:00N 48°13' E 016°25'1 0.9
2018-Mar-17 05:26N 48°13' E 016°25'0 0.0
2018-Mar-17 04:59N 48°13' E 016°25'0 0.0
2018-Mar-17 04:30N 48°13' E 016°25'0 0.0
2018-Mar-17 03:55N 48°13' E 016°25'0 0.0
2018-Mar-17 03:29N 48°13' E 016°25'0 0.0
2018-Mar-17 03:00N 48°13' E 016°25'0 0.0
2018-Mar-17 02:28N 48°13' E 016°25'0 0.0
2018-Mar-17 01:54N 48°13' E 016°25'0 0.0
2018-Mar-17 01:24N 48°13' E 016°25'0 0.0
2018-Mar-17 00:57N 48°13' E 016°25'0 0.0
2018-Mar-17 00:28N 48°13' E 016°25'0 0.0
2018-Mar-17 00:00N 48°13' E 016°25'0 0.0
2018-Mar-16 23:30N 48°13' E 016°25'0 0.0
2018-Mar-16 23:00N 48°13' E 016°25'0 0.0
2018-Mar-16 22:29N 48°13' E 016°25'0 0.0
2018-Mar-16 21:55N 48°13' E 016°25'0 0.0
2018-Mar-16 21:29N 48°13' E 016°25'0 0.0
2018-Mar-16 20:54N 48°13' E 016°25'0 0.0
2018-Mar-16 20:28N 48°13' E 016°25'0 0.0
2018-Mar-16 20:00N 48°13' E 016°25'0 0.0
2018-Mar-16 19:27N 48°13' E 016°25'0 0.0
2018-Mar-16 19:00N 48°13' E 016°25'0 0.4
2018-Mar-16 18:29N 48°13' E 016°26'1 1.3
2018-Mar-16 18:00N 48°13' E 016°25'0 0.2
2018-Mar-16 17:28N 48°13' E 016°25'3 6.4
2018-Mar-16 17:00N 48°11' E 016°28'0 1.0
2018-Mar-16 16:31N 48°11' E 016°29'2 3.6
2018-Mar-16 16:00N 48°09' E 016°31'2 3.4
2018-Mar-16 15:30N 48°08' E 016°33'4 3.5
2018-Mar-16 14:27N 48°08' E 016°38'6 2.9
2018-Mar-16 12:27N 48°07' E 016°47'2 3.1
2018-Mar-16 11:53N 48°07' E 016°50'1 3.0
2018-Mar-16 11:30N 48°08' E 016°51'2 3.1
2018-Mar-16 11:00N 48°08' E 016°53'2 3.0
2018-Mar-16 10:30N 48°09' E 016°56'2 3.1
2018-Mar-16 10:00N 48°10' E 016°57'1 2.5
2018-Mar-16 09:29N 48°10' E 016°59'2 3.4
2018-Mar-16 09:00N 48°09' E 017°01'2 3.0
2018-Mar-16 08:30N 48°09' E 017°03'1 2.9
2018-Mar-16 08:01N 48°08' E 017°05'2 4.2
2018-Mar-16 07:30N 48°08' E 017°08'2 4.6
2018-Mar-16 07:00N 48°06' E 017°09'0 0.8
2018-Mar-16 06:31N 48°05' E 017°09'0 0.0
2018-Mar-16 06:00N 48°05' E 017°09'0 0.0
2018-Mar-16 05:30N 48°05' E 017°09'1 2.6
2018-Mar-16 05:00N 48°07' E 017°08'1 2.6
2018-Mar-16 04:30N 48°08' E 017°09'0 0.0
2018-Mar-16 04:00N 48°08' E 017°09'0 0.0
2018-Mar-16 03:30N 48°08' E 017°09'0 0.0
2018-Mar-16 03:00N 48°08' E 017°09'0 0.0
2018-Mar-16 02:30N 48°08' E 017°09'0 0.0
2018-Mar-16 02:00N 48°08' E 017°09'0 0.0
2018-Mar-16 01:30N 48°08' E 017°09'0 0.0
2018-Mar-16 01:00N 48°08' E 017°09'0 0.0
2018-Mar-16 00:30N 48°08' E 017°09'0 0.0
2018-Mar-16 00:00N 48°08' E 017°09'0 0.0
2018-Mar-15 23:30N 48°08' E 017°09'0 0.0
2018-Mar-15 23:00N 48°08' E 017°09'0 0.0
2018-Mar-15 22:30N 48°08' E 017°09'0 0.0
2018-Mar-15 22:00N 48°08' E 017°09'0 0.0
2018-Mar-15 21:30N 48°08' E 017°09'0 0.0
2018-Mar-15 21:00N 48°08' E 017°09'0 0.0
2018-Mar-15 20:30N 48°08' E 017°09'0 0.0
2018-Mar-15 20:00N 48°08' E 017°09'0 0.0
2018-Mar-15 19:30N 48°08' E 017°09'0 0.0
2018-Mar-15 19:00N 48°08' E 017°09'0 0.0
2018-Mar-15 18:30N 48°08' E 017°09'0 0.0
2018-Mar-15 18:00N 48°08' E 017°09'0 0.0
2018-Mar-15 17:30N 48°08' E 017°09'0 0.4
2018-Mar-15 17:00N 48°08' E 017°09'1 1.8
2018-Mar-15 16:30N 48°07' E 017°08'2 3.1
2018-Mar-15 16:00N 48°08' E 017°08'0 0.0
2018-Mar-15 15:30N 48°08' E 017°08'0 0.0
2018-Mar-15 15:00N 48°08' E 017°08'0 0.0
2018-Mar-15 14:30N 48°08' E 017°08'0 0.0
2018-Mar-15 14:00N 48°08' E 017°08'0 0.0
2018-Mar-15 13:30N 48°08' E 017°08'0 0.0
2018-Mar-15 13:00N 48°08' E 017°08'0 0.0
2018-Mar-15 12:30N 48°08' E 017°08'0 0.0
2018-Mar-15 12:00N 48°08' E 017°08'0 0.0
2018-Mar-15 11:30N 48°08' E 017°08'0 0.0
2018-Mar-15 11:00N 48°08' E 017°08'0 0.0
2018-Mar-15 10:30N 48°08' E 017°08'0 0.0
2018-Mar-15 10:00N 48°08' E 017°08'0 0.0
2018-Mar-15 09:30N 48°08' E 017°08'0 0.0
2018-Mar-15 09:00N 48°08' E 017°08'0 0.0
2018-Mar-15 08:30N 48°08' E 017°08'0 0.0
2018-Mar-15 08:00N 48°08' E 017°08'0 0.0
2018-Mar-15 07:30N 48°08' E 017°08'0 0.0
2018-Mar-15 07:00N 48°08' E 017°08'0 0.0
2018-Mar-15 06:30N 48°08' E 017°08'0 0.0
2018-Mar-15 06:00N 48°08' E 017°08'0 0.0
2018-Mar-15 05:30N 48°08' E 017°08'0 0.0
2018-Mar-15 05:00N 48°08' E 017°08'0 0.0
2018-Mar-15 04:30N 48°08' E 017°08'0 0.0
2018-Mar-15 04:00N 48°08' E 017°08'0 0.0
2018-Mar-15 03:30N 48°08' E 017°08'0 0.0
2018-Mar-15 03:00N 48°08' E 017°08'0 0.0
2018-Mar-15 02:30N 48°08' E 017°08'0 0.0
2018-Mar-15 02:00N 48°08' E 017°08'0 0.0
2018-Mar-15 01:30N 48°08' E 017°08'0 0.0
2018-Mar-15 01:00N 48°08' E 017°08'0 0.0
2018-Mar-15 00:30N 48°08' E 017°08'0 0.0
2018-Mar-15 00:00N 48°08' E 017°08'0 0.0
2018-Mar-14 23:30N 48°08' E 017°08'0 0.0
2018-Mar-14 23:00N 48°08' E 017°08'0 0.0
2018-Mar-14 22:30N 48°08' E 017°08'0 0.0
2018-Mar-14 22:00N 48°08' E 017°08'0 0.0
2018-Mar-14 21:30N 48°08' E 017°08'0 0.0
2018-Mar-14 21:00N 48°08' E 017°08'0 0.0
2018-Mar-14 20:30N 48°08' E 017°08'0 0.0
2018-Mar-14 20:00N 48°08' E 017°08'0 0.0
2018-Mar-14 19:30N 48°08' E 017°08'0 0.0
2018-Mar-14 19:00N 48°08' E 017°08'0 0.0
2018-Mar-14 18:30N 48°08' E 017°08'0 0.0
2018-Mar-14 18:00N 48°08' E 017°08'0 0.0
2018-Mar-14 17:30N 48°08' E 017°08'0 0.0
2018-Mar-14 17:00N 48°08' E 017°08'0 0.0
2018-Mar-14 16:30N 48°08' E 017°08'0 0.0
2018-Mar-14 16:00N 48°08' E 017°08'0 0.3
2018-Mar-14 15:30N 48°08' E 017°08'0 0.0
2018-Mar-14 15:00N 48°08' E 017°08'0 0.0
2018-Mar-14 14:30N 48°08' E 017°08'0 0.0
2018-Mar-14 14:00N 48°08' E 017°08'0 0.0
2018-Mar-14 13:30N 48°08' E 017°08'0 0.0
2018-Mar-14 13:00N 48°08' E 017°08'0 0.0
2018-Mar-14 12:30N 48°08' E 017°08'0 0.0
2018-Mar-14 12:00N 48°08' E 017°08'0 0.0
2018-Mar-14 11:30N 48°08' E 017°08'0 0.0
2018-Mar-14 11:00N 48°08' E 017°08'0 0.0
2018-Mar-14 10:30N 48°08' E 017°08'0 0.0
2018-Mar-14 10:00N 48°08' E 017°08'0 0.0
2018-Mar-14 09:30N 48°08' E 017°08'0 0.0
2018-Mar-14 09:00N 48°08' E 017°08'0 0.0
2018-Mar-14 08:30N 48°08' E 017°08'0 0.0
2018-Mar-14 08:00N 48°08' E 017°08'0 0.0
2018-Mar-14 07:30N 48°08' E 017°08'0 0.2
2018-Mar-14 07:00N 48°08' E 017°08'0 0.1
2018-Mar-14 06:30N 48°08' E 017°08'0 0.0
2018-Mar-14 06:00N 48°08' E 017°08'0 0.0
2018-Mar-14 05:30N 48°08' E 017°08'0 0.0
2018-Mar-14 05:00N 48°08' E 017°08'0 0.0
2018-Mar-14 04:30N 48°08' E 017°08'0 0.0
2018-Mar-14 04:00N 48°08' E 017°08'0 0.0
2018-Mar-14 03:30N 48°08' E 017°08'0 0.0
2018-Mar-14 03:00N 48°08' E 017°08'0 0.0
2018-Mar-14 02:30N 48°08' E 017°08'0 0.0
2018-Mar-14 02:00N 48°08' E 017°08'0 0.0
2018-Mar-14 01:30N 48°08' E 017°08'0 0.0
2018-Mar-14 01:00N 48°08' E 017°08'0 0.0
2018-Mar-14 00:30N 48°08' E 017°08'0 0.0
2018-Mar-14 00:00N 48°08' E 017°08'0 0.0
2018-Mar-13 23:30N 48°08' E 017°08'0 0.0
2018-Mar-13 23:00N 48°08' E 017°08'0 0.0
2018-Mar-13 22:30N 48°08' E 017°08'0 0.0
2018-Mar-13 22:00N 48°08' E 017°08'0 0.0
2018-Mar-13 21:30N 48°08' E 017°08'0 0.0
2018-Mar-13 21:00N 48°08' E 017°08'0 0.0
2018-Mar-13 20:30N 48°08' E 017°08'0 0.0
2018-Mar-13 20:00N 48°08' E 017°08'0 0.0
2018-Mar-13 19:30N 48°08' E 017°08'0 0.0
2018-Mar-13 19:00N 48°08' E 017°08'0 0.0
2018-Mar-13 18:30N 48°08' E 017°08'0 0.0
2018-Mar-13 18:00N 48°08' E 017°08'0 0.0
2018-Mar-13 17:30N 48°08' E 017°08'0 0.0
2018-Mar-13 17:00N 48°08' E 017°08'0 0.0
2018-Mar-13 16:30N 48°08' E 017°08'0 0.0
2018-Mar-13 16:00N 48°08' E 017°08'0 0.0
2018-Mar-13 15:30N 48°08' E 017°08'0 0.9
2018-Mar-13 15:00N 48°08' E 017°09'1 1.5
2018-Mar-13 14:30N 48°07' E 017°09'0 0.3
2018-Mar-13 14:00N 48°08' E 017°09'0 0.0
2018-Mar-13 13:30N 48°08' E 017°09'0 0.0
2018-Mar-13 13:00N 48°08' E 017°09'0 0.0
2018-Mar-13 12:31N 48°08' E 017°09'0 0.0
2018-Mar-13 12:00N 48°08' E 017°09'0 0.0
2018-Mar-13 11:30N 48°08' E 017°09'0 0.0
2018-Mar-13 11:00N 48°08' E 017°09'0 0.0
2018-Mar-13 10:30N 48°08' E 017°09'0 0.0
2018-Mar-13 10:00N 48°08' E 017°09'0 0.0
2018-Mar-13 09:30N 48°08' E 017°09'0 0.0
2018-Mar-13 09:00N 48°08' E 017°09'0 0.0
2018-Mar-13 08:30N 48°08' E 017°09'0 0.0
2018-Mar-13 08:00N 48°08' E 017°09'0 0.0
2018-Mar-13 07:30N 48°08' E 017°09'0 0.0
2018-Mar-13 07:00N 48°08' E 017°09'0 0.0
2018-Mar-13 06:30N 48°08' E 017°09'0 0.0
2018-Mar-13 06:00N 48°08' E 017°09'0 0.0
2018-Mar-13 05:30N 48°08' E 017°09'0 0.0
2018-Mar-13 05:00N 48°08' E 017°09'0 0.0
2018-Mar-13 04:30N 48°08' E 017°09'0 0.0
2018-Mar-13 04:00N 48°08' E 017°09'0 0.0
2018-Mar-13 03:30N 48°08' E 017°09'0 0.0
2018-Mar-13 03:00N 48°08' E 017°09'0 0.0
2018-Mar-13 02:30N 48°08' E 017°09'0 0.0
2018-Mar-13 02:00N 48°08' E 017°09'0 0.0
2018-Mar-13 01:30N 48°08' E 017°09'0 0.0
2018-Mar-13 01:00N 48°08' E 017°09'0 0.0
2018-Mar-13 00:30N 48°08' E 017°09'0 0.0
2018-Mar-13 00:00N 48°08' E 017°09'0 0.0
2018-Mar-12 23:30N 48°08' E 017°09'0 0.0
2018-Mar-12 23:00N 48°08' E 017°09'0 0.0
2018-Mar-12 22:30N 48°08' E 017°09'0 0.0
2018-Mar-12 22:00N 48°08' E 017°09'0 0.0
2018-Mar-12 21:30N 48°08' E 017°09'0 0.0
2018-Mar-12 21:00N 48°08' E 017°09'0 0.0
2018-Mar-12 20:30N 48°08' E 017°09'0 0.0
2018-Mar-12 19:59N 48°08' E 017°09'0 0.0
2018-Mar-12 19:30N 48°08' E 017°09'0 0.0
2018-Mar-12 19:00N 48°08' E 017°09'0 0.0
2018-Mar-12 18:30N 48°08' E 017°09'0 0.0
2018-Mar-12 18:00N 48°08' E 017°09'0 0.0
2018-Mar-12 17:30N 48°08' E 017°09'0 0.0
2018-Mar-12 17:00N 48°08' E 017°09'0 0.0
2018-Mar-12 16:30N 48°08' E 017°09'0 0.0
2018-Mar-12 16:00N 48°08' E 017°09'0 0.0
2018-Mar-12 15:30N 48°08' E 017°09'0 0.0
2018-Mar-12 15:00N 48°08' E 017°09'0 0.0
2018-Mar-12 14:30N 48°08' E 017°09'0 0.0
2018-Mar-12 14:00N 48°08' E 017°09'0 0.0
2018-Mar-12 13:30N 48°08' E 017°09'0 0.0
2018-Mar-12 13:00N 48°08' E 017°09'0 0.2
2018-Mar-12 12:30N 48°07' E 017°09'0 0.0
2018-Mar-12 12:00N 48°07' E 017°09'0 0.0
2018-Mar-12 11:30N 48°07' E 017°09'0 0.0
2018-Mar-12 11:00N 48°07' E 017°09'0 0.0
2018-Mar-12 10:30N 48°07' E 017°09'0 0.0
2018-Mar-12 10:00N 48°07' E 017°09'0 0.0
2018-Mar-12 09:30N 48°07' E 017°09'0 0.0
2018-Mar-12 09:00N 48°07' E 017°09'0 0.0
2018-Mar-12 08:30N 48°07' E 017°09'0 0.0
2018-Mar-12 08:00N 48°07' E 017°09'0 0.0
2018-Mar-12 07:30N 48°07' E 017°09'0 0.0
2018-Mar-12 07:00N 48°07' E 017°09'0 0.0
2018-Mar-12 06:31N 48°07' E 017°09'0 0.0
2018-Mar-12 06:00N 48°07' E 017°09'0 0.0
2018-Mar-12 05:30N 48°07' E 017°09'0 0.0
2018-Mar-12 05:00N 48°07' E 017°09'0 0.0
2018-Mar-12 04:30N 48°07' E 017°09'0 0.0
2018-Mar-12 04:00N 48°07' E 017°09'0 0.0
2018-Mar-12 03:30N 48°07' E 017°09'0 0.0
2018-Mar-12 03:00N 48°07' E 017°09'0 0.0
2018-Mar-12 02:30N 48°07' E 017°09'0 0.0
2018-Mar-12 02:00N 48°07' E 017°09'0 0.0
2018-Mar-12 01:30N 48°07' E 017°09'0 0.0
2018-Mar-12 01:00N 48°07' E 017°09'0 0.0
2018-Mar-12 00:29N 48°07' E 017°09'0 0.0
2018-Mar-12 00:00N 48°07' E 017°09'0 0.0
2018-Mar-11 23:30N 48°07' E 017°09'0 0.0
2018-Mar-11 23:00N 48°07' E 017°09'0 0.0
2018-Mar-11 22:30N 48°07' E 017°09'0 0.0
2018-Mar-11 22:00N 48°07' E 017°09'0 0.0
2018-Mar-11 21:30N 48°07' E 017°09'0 0.0
2018-Mar-11 21:00N 48°07' E 017°09'0 0.0
2018-Mar-11 20:30N 48°07' E 017°09'0 0.0
2018-Mar-11 20:00N 48°07' E 017°09'0 0.0
2018-Mar-11 19:30N 48°07' E 017°09'0 0.0
2018-Mar-11 19:00N 48°07' E 017°09'0 0.0
2018-Mar-11 18:31N 48°07' E 017°09'0 0.0
2018-Mar-11 18:00N 48°07' E 017°09'0 0.0
2018-Mar-11 17:30N 48°07' E 017°09'0 0.0
2018-Mar-11 17:00N 48°07' E 017°09'0 0.0
2018-Mar-11 16:30N 48°07' E 017°09'0 0.0
2018-Mar-11 16:00N 48°07' E 017°09'0 0.0
2018-Mar-11 15:30N 48°07' E 017°09'0 0.0
2018-Mar-11 15:00N 48°07' E 017°09'0 0.0
2018-Mar-11 14:30N 48°07' E 017°09'0 0.0
2018-Mar-11 14:00N 48°07' E 017°09'0 0.0
2018-Mar-11 13:30N 48°07' E 017°09'0 0.0
2018-Mar-11 13:00N 48°07' E 017°09'0 0.0
2018-Mar-11 12:31N 48°07' E 017°09'0 0.1
2018-Mar-11 12:00N 48°08' E 017°09'0 0.0
2018-Mar-11 11:30N 48°08' E 017°09'0 0.0
2018-Mar-11 11:00N 48°08' E 017°09'0 0.0
2018-Mar-11 10:30N 48°08' E 017°09'0 0.4
2018-Mar-11 10:00N 48°07' E 017°09'4 8.1
2018-Mar-11 09:30N 48°09' E 017°03'4 8.2
2018-Mar-11 09:00N 48°10' E 016°57'19 7.7
2018-Mar-11 06:30N 48°11' E 016°29'  

Dump ship's entire track history